Time;durP1;ratioP1;P1;durP2;ratioP2;P2;SDS_P1;SDS_P2;PMS_P1;PMS_P2;Temp;Humidity;BMP_temperature;BMP_pressure;BME280_temperature;BME280_humidity;BME280_pressure;Samples;Min_cycle;Max_cycle;Signal;HPM_P1;HPM_P2
2021/01/31 19:33:07;;;;;;;95.05;52.75;;;;;;;;;;4903505;23;20055;-70
2021/01/31 19:35:33;;;;;;;83.10;46.65;;;;;;;;;;4960424;28;20031;-71
2021/01/31 19:37:59;;;;;;;82.65;46.85;;;;;;;;;;4958167;29;20118;-71
2021/01/31 19:40:26;;;;;;;87.00;51.38;;;;;;;;;;4957226;29;20027;-71
2021/01/31 19:43:11;;;;;;;89.25;49.88;;;;;;;;;;5349537;23;20064;-70
2021/01/31 19:45:38;;;;;;;86.68;50.75;;;;;;;;;;4935248;29;20459;-68
2021/01/31 19:48:04;;;;;;;88.00;50.25;;;;;;;;;;4922189;29;20123;-70
2021/01/31 19:50:31;;;;;;;63.42;37.25;;;;;;;;;;4939283;29;20074;-66
2021/01/31 19:52:57;;;;;;;77.40;47.72;;;;;;;;;;4922076;29;20035;-65
2021/01/31 19:55:28;;;;;;;81.18;48.50;;;;;;;;;;4957096;29;20374;-68
2021/01/31 19:57:54;;;;;;;81.65;48.60;;;;;;;;;;4957752;29;20034;-65
2021/01/31 20:00:21;;;;;;;80.10;48.45;;;;;;;;;;4957696;28;20070;-66
2021/01/31 20:02:47;;;;;;;81.72;48.08;;;;;;;;;;4958450;29;20470;-67
2021/01/31 20:05:13;;;;;;;86.32;52.25;;;;;;;;;;4933750;29;20019;-69
2021/01/31 20:07:40;;;;;;;68.35;43.15;;;;;;;;;;4943638;29;20063;-66
2021/01/31 20:10:08;;;;;;;76.70;46.72;;;;;;;;;;4943049;29;20036;-67
2021/01/31 20:12:34;;;;;;;68.13;42.08;;;;;;;;;;4946521;29;20024;-67
2021/01/31 20:15:00;;;;;;;71.10;44.65;;;;;;;;;;4926663;29;20047;-69
2021/01/31 20:17:26;;;;;;;83.18;49.60;;;;;;;;;;4955324;29;20027;-65
2021/01/31 20:19:52;;;;;;;100.70;59.15;;;;;;;;;;4950001;29;20545;-68
2021/01/31 20:22:19;;;;;;;86.28;51.80;;;;;;;;;;4957892;29;20089;-67
2021/01/31 20:24:45;;;;;;;112.15;69.10;;;;;;;;;;4971488;28;20086;-68
2021/01/31 20:27:11;;;;;;;80.78;49.67;;;;;;;;;;4946943;29;20023;-68
2021/01/31 20:29:37;;;;;;;87.50;50.58;;;;;;;;;;4954674;29;20019;-69
2021/01/31 20:32:03;;;;;;;86.68;49.72;;;;;;;;;;4946741;29;20035;-69
2021/01/31 20:34:29;;;;;;;99.03;57.70;;;;;;;;;;4962601;28;20066;-67
2021/01/31 20:36:55;;;;;;;114.13;63.90;;;;;;;;;;4952731;29;20043;-68
2021/01/31 20:39:21;;;;;;;116.43;64.32;;;;;;;;;;4947510;29;20040;-69
2021/01/31 20:41:48;;;;;;;85.85;50.53;;;;;;;;;;4945335;29;20031;-70
2021/01/31 20:44:14;;;;;;;84.65;51.08;;;;;;;;;;4961077;28;20044;-68
2021/01/31 20:46:40;;;;;;;102.57;58.90;;;;;;;;;;4954515;28;20035;-69
2021/01/31 20:49:06;;;;;;;94.93;56.40;;;;;;;;;;4952975;29;20039;-69
2021/01/31 20:51:32;;;;;;;71.20;44.58;;;;;;;;;;4946876;29;20352;-70
2021/01/31 20:53:59;;;;;;;58.83;37.30;;;;;;;;;;4951391;29;20370;-68
2021/01/31 20:56:25;;;;;;;60.95;37.72;;;;;;;;;;4965724;28;20019;-68
2021/01/31 20:58:51;;;;;;;76.55;44.42;;;;;;;;;;4929902;29;20387;-70
2021/01/31 21:01:19;;;;;;;68.35;40.38;;;;;;;;;;4961138;28;20110;-68
2021/01/31 21:03:45;;;;;;;88.13;49.67;;;;;;;;;;4939734;29;20078;-69
2021/01/31 21:06:11;;;;;;;70.45;40.40;;;;;;;;;;4953597;29;20114;-71
2021/01/31 21:08:37;;;;;;;94.05;50.35;;;;;;;;;;4946297;29;20371;-69
2021/01/31 21:11:03;;;;;;;53.92;33.28;;;;;;;;;;4942683;29;20019;-70
2021/01/31 21:13:29;;;;;;;65.85;38.35;;;;;;;;;;4946401;29;20016;-69
2021/01/31 21:15:55;;;;;;;62.42;38.03;;;;;;;;;;4945602;29;20525;-69
2021/01/31 21:18:22;;;;;;;75.13;44.28;;;;;;;;;;4937253;29;20036;-70
2021/01/31 21:20:48;;;;;;;86.55;50.17;;;;;;;;;;4961563;28;20039;-68
2021/01/31 21:23:14;;;;;;;82.10;47.38;;;;;;;;;;4945929;29;20465;-68
2021/01/31 21:25:40;;;;;;;91.95;51.22;;;;;;;;;;4948093;29;20370;-70
2021/01/31 21:28:08;;;;;;;121.38;62.65;;;;;;;;;;4946401;29;20074;-70
2021/01/31 21:30:35;;;;;;;96.93;53.88;;;;;;;;;;4960564;28;20123;-70
2021/01/31 21:33:01;;;;;;;132.98;71.55;;;;;;;;;;4933687;29;20027;-70
2021/01/31 21:35:27;;;;;;;97.32;56.03;;;;;;;;;;4971250;28;20462;-69
2021/01/31 21:37:53;;;;;;;85.25;48.95;;;;;;;;;;4971426;28;20367;-69
2021/01/31 21:40:22;;;;;;;78.60;45.65;;;;;;;;;;4950958;29;20034;-69
2021/01/31 21:42:48;;;;;;;89.30;51.60;;;;;;;;;;4971126;28;20030;-70
2021/01/31 21:45:15;;;;;;;81.47;45.90;;;;;;;;;;4968360;28;20054;-71
2021/01/31 21:47:41;;;;;;;76.25;43.38;;;;;;;;;;4970592;28;20066;-71
2021/01/31 21:50:08;;;;;;;78.63;45.95;;;;;;;;;;4955716;29;20110;-68
2021/01/31 21:52:34;;;;;;;72.03;43.70;;;;;;;;;;4956209;29;20027;-69
2021/01/31 21:55:01;;;;;;;71.97;41.90;;;;;;;;;;4956247;29;20042;-70
2021/01/31 21:57:27;;;;;;;75.50;44.75;;;;;;;;;;4970241;28;20024;-68
2021/01/31 21:59:53;;;;;;;73.75;43.38;;;;;;;;;;4970815;28;20136;-69
2021/01/31 22:02:20;;;;;;;66.18;40.88;;;;;;;;;;4943731;29;20024;-69
2021/01/31 22:04:46;;;;;;;60.50;36.75;;;;;;;;;;4934901;29;20031;-70
2021/01/31 22:07:12;;;;;;;55.83;34.15;;;;;;;;;;4936594;29;20082;-70
2021/01/31 22:09:38;;;;;;;51.20;34.30;;;;;;;;;;4919682;29;20116;-68
2021/01/31 22:12:04;;;;;;;54.83;33.63;;;;;;;;;;4936108;29;20019;-67
2021/01/31 22:14:30;;;;;;;49.70;30.38;;;;;;;;;;4936720;29;20027;-70
2021/01/31 22:16:57;;;;;;;47.75;30.75;;;;;;;;;;4939333;29;20110;-70
2021/01/31 22:19:23;;;;;;;47.35;29.80;;;;;;;;;;4946452;29;20023;-69
2021/01/31 22:21:49;;;;;;;43.92;27.65;;;;;;;;;;4954220;29;20495;-71
2021/01/31 22:24:15;;;;;;;42.10;26.67;;;;;;;;;;4969693;28;20471;-70
2021/01/31 22:26:42;;;;;;;38.35;26.00;;;;;;;;;;4945120;29;20538;-71
2021/01/31 22:29:08;;;;;;;35.42;23.40;;;;;;;;;;4945564;29;20031;-70
2021/01/31 22:31:34;;;;;;;30.42;21.20;;;;;;;;;;4926592;29;20031;-70
2021/01/31 22:34:00;;;;;;;34.45;22.40;;;;;;;;;;4936393;29;20082;-71
2021/01/31 22:36:27;;;;;;;26.20;18.52;;;;;;;;;;4919288;29;20028;-71
2021/01/31 22:38:53;;;;;;;21.92;15.13;;;;;;;;;;4918908;29;20027;-69
2021/01/31 22:41:19;;;;;;;22.00;14.77;;;;;;;;;;4921117;29;20399;-67
2021/01/31 22:43:45;;;;;;;21.17;14.85;;;;;;;;;;4927462;29;20134;-68
2021/01/31 22:46:11;;;;;;;20.30;13.88;;;;;;;;;;4959355;28;20060;-68
2021/01/31 22:48:37;;;;;;;17.90;13.10;;;;;;;;;;4938674;29;20083;-67
